Flight Track Log - Related Links

Times and Time Zones

All times are in EDT time to prevent confusion due to time zone crossing. See the N353LA flight status page for this flight to view local times or setup timezone preferences in your user account.

Time Position Orientation Groundspeed Altitude Reporting Facility
EDT Latitude Longitude Course Direction KTS MPH feet Rate Location/Type
Thu 08:33:15 PM 47.3529 -120.1619 134° Southeast  Level FlightAware Approximate
Thu 08:34:21 PM 47.2950 -120.0725 148° Southeast 164 189 3,500  Level Seattle Center
Thu 08:35:22 PM 47.2558 -120.0358 154° Southeast 165 190 3,600 390 Climbing Seattle Center
Thu 08:36:24 PM 47.2175 -120.0081 152° Southeast 154 177 4,300 732 Climbing Seattle Center
Thu 08:37:25 PM 47.1819 -119.9806 152° Southeast 143 165 5,100 787 Climbing Seattle Center
Thu 08:38:26 PM 47.1472 -119.9531 151° Southeast 141 162 5,900 787 Climbing Seattle Center
Thu 08:39:27 PM 47.1144 -119.9258 150° Southeast 138 159 6,700 634 Climbing Seattle Center
Thu 08:40:29 PM 47.0814 -119.8975 153° Southeast 138 159 7,200 195 Climbing Seattle Center
Thu 08:41:30 PM 47.0403 -119.8667 151° Southeast 160 184 7,100 -49 Descending Seattle Center
Thu 08:42:31 PM 46.9978 -119.8325 144° Southeast 172 198 7,100  Level Seattle Center
Thu 08:43:33 PM 46.9578 -119.7900 144° Southeast 177 204 7,100  Level Seattle Center
Thu 08:44:34 PM 46.9186 -119.7489 146° Southeast 175 201 7,100  Level Seattle Center
Thu 08:45:35 PM 46.8772 -119.7081 147° Southeast 178 205 7,100 -98 Level Seattle Center
Thu 08:46:36 PM 46.8286 -119.6611 146° Southeast 176 203 6,900 -585 Descending Seattle Center
Thu 08:47:38 PM 46.7831 -119.6167 146° Southeast 195 224 5,900 -537 Descending Seattle Center
Thu 08:48:39 PM 46.7419 -119.5756 147° Southeast 174 200 5,800 -295 Descending Seattle Center
Thu 08:49:40 PM 46.7064 -119.5417 148° Southeast 159 183 5,300 -393 Descending Seattle Center
Thu 08:50:41 PM 46.6706 -119.5086 147° Southeast 154 177 5,000 -146 Descending Seattle Center
Thu 08:51:43 PM 46.6319 -119.4722 147° Southeast 161 185 5,000  Level Seattle Center
Thu 08:52:44 PM 46.5931 -119.4353 145° Southeast 166 191 5,000  Level Seattle Center
Thu 08:53:45 PM 46.5547 -119.3967 146° Southeast 167 192 5,000  Level Seattle Center
Thu 08:54:46 PM 46.5161 -119.3586 147° Southeast 169 194 5,000  Level Seattle Center
Thu 08:55:47 PM 46.4783 -119.3231 137° Southeast 165 190 5,000 -49 Level Seattle Center
Thu 08:56:49 PM 46.4389 -119.2703 132° Southeast 163 188 4,900 -98 Descending Seattle Center
Thu 08:57:50 PM 46.4114 -119.2261 132° Southeast 148 170 4,800 -590 Descending Seattle Center
Thu 08:58:51 PM 46.3844 -119.1822 141° Southeast 146 168 3,700 -1,171 Descending Seattle Center
Thu 08:59:53 PM 46.3544 -119.1467 142° Southeast 142 163 2,400 -732 Descending Seattle Center
Thu 09:00:54 PM 46.3239 -119.1125 142° Southeast 142 163 2,200 -197 Descending Seattle Center

Login

Don't have an account? Register now (free) for customized features, flight alerts, and more!